createdAt,value
2018-07-28T00:00:23.474Z,29.11
2018-07-28T00:00:49.055Z,29.1
2018-07-28T00:01:14.642Z,29.13
2018-07-28T00:01:40.240Z,29.07
2018-07-28T00:02:05.843Z,29.1
2018-07-28T00:02:31.456Z,29.11
2018-07-28T00:02:57.067Z,29.1
2018-07-28T00:03:22.630Z,29.16
2018-07-28T00:03:48.199Z,29.11
2018-07-28T00:04:13.778Z,29.1
2018-07-28T00:04:39.351Z,29.1
2018-07-28T00:05:04.929Z,29.1
2018-07-28T00:05:30.505Z,29.08
2018-07-28T00:05:56.083Z,29.19
2018-07-28T00:06:21.661Z,29.07
2018-07-28T00:06:47.254Z,29.08
2018-07-28T00:07:12.816Z,29.11
2018-07-28T00:07:38.393Z,29.07
2018-07-28T00:08:03.967Z,29.07
2018-07-28T00:08:29.525Z,29.11
2018-07-28T00:08:55.088Z,29.13
2018-07-28T00:09:20.670Z,29.1
2018-07-28T00:09:46.258Z,29.13
2018-07-28T00:10:11.851Z,29.16
2018-07-28T00:10:37.436Z,29.13
2018-07-28T00:11:03.002Z,29.08
2018-07-28T00:11:28.592Z,29.15
2018-07-28T00:11:54.173Z,29.04
2018-07-28T00:12:19.748Z,29.06
2018-07-28T00:12:45.321Z,29.18
2018-07-28T00:13:10.901Z,29.08
2018-07-28T00:13:36.502Z,29.03
2018-07-28T00:14:02.067Z,29.15
2018-07-28T00:14:27.664Z,29.11
2018-07-28T00:14:53.228Z,29.1
2018-07-28T00:15:18.786Z,29.15
2018-07-28T00:15:44.364Z,29.19
2018-07-28T00:16:09.919Z,29.13
2018-07-28T00:16:35.496Z,29.01
2018-07-28T00:17:01.070Z,29.07
2018-07-28T00:17:26.653Z,29.18
2018-07-28T00:17:52.224Z,29.06
2018-07-28T00:18:17.797Z,29.13
2018-07-28T00:18:43.376Z,29.1
2018-07-28T00:19:08.965Z,29.07
2018-07-28T00:19:34.529Z,29.08
2018-07-28T00:20:00.107Z,29.07
2018-07-28T00:20:25.673Z,29.08
2018-07-28T00:20:51.265Z,29.11
2018-07-28T00:21:16.847Z,29.1
2018-07-28T00:21:42.428Z,29.13
2018-07-28T00:22:08.000Z,29.1
2018-07-28T00:22:33.574Z,29.07
2018-07-28T00:22:59.147Z,29.07
2018-07-28T00:23:24.725Z,29.11
2018-07-28T00:23:50.311Z,29.16
2018-07-28T00:24:15.885Z,29.13
2018-07-28T00:24:41.459Z,29.08
2018-07-28T00:25:07.043Z,29.1
2018-07-28T00:25:32.630Z,29.15
2018-07-28T00:25:58.187Z,29.13
2018-07-28T00:26:23.775Z,29.08
2018-07-28T00:26:49.334Z,29.08
2018-07-28T00:27:14.911Z,29.1
2018-07-28T00:27:40.507Z,29.08
2018-07-28T00:28:06.082Z,29.07
2018-07-28T00:28:31.653Z,29.11
2018-07-28T00:28:57.245Z,29.07
2018-07-28T00:29:22.825Z,29.18
2018-07-28T00:29:48.398Z,29.08
2018-07-28T00:30:13.980Z,29.07
2018-07-28T00:30:39.557Z,29.11
2018-07-28T00:31:05.127Z,29.15
2018-07-28T00:31:30.716Z,29.1
2018-07-28T00:31:56.301Z,29.13
2018-07-28T00:32:21.865Z,29.19
2018-07-28T00:32:47.454Z,29.1
2018-07-28T00:33:13.037Z,29.13
2018-07-28T00:33:38.606Z,29.1
2018-07-28T00:34:04.202Z,29.08
2018-07-28T00:34:29.773Z,29.13
2018-07-28T00:34:55.341Z,29.08
2018-07-28T00:35:20.919Z,29.1
2018-07-28T00:35:46.499Z,29.16
2018-07-28T00:36:12.077Z,29.11
2018-07-28T00:36:37.661Z,29.07
2018-07-28T00:37:03.249Z,29.1
2018-07-28T00:37:28.825Z,29.07
2018-07-28T00:37:54.397Z,29.07
2018-07-28T00:38:19.973Z,29.18
2018-07-28T00:38:45.562Z,29.18
2018-07-28T00:39:11.133Z,29.08
2018-07-28T00:39:36.695Z,29.08
2018-07-28T00:40:02.258Z,29.1
2018-07-28T00:40:27.828Z,29.1
2018-07-28T00:40:53.406Z,29.1
2018-07-28T00:41:18.984Z,29.13
2018-07-28T00:41:44.565Z,29.11
2018-07-28T00:42:10.136Z,29.19
2018-07-28T00:42:35.702Z,29.08
2018-07-28T00:43:01.280Z,29.1
2018-07-28T00:43:26.865Z,29.07
2018-07-28T00:43:52.447Z,29.08
2018-07-28T00:44:18.009Z,29.1
2018-07-28T00:44:43.579Z,29.1
2018-07-28T00:45:09.149Z,29.18
2018-07-28T00:45:34.729Z,29.13
2018-07-28T00:46:00.286Z,29.07
2018-07-28T00:46:25.864Z,29
2018-07-28T00:46:51.454Z,29.1
2018-07-28T00:47:17.031Z,29.16
2018-07-28T00:47:42.587Z,29.11
2018-07-28T00:48:08.164Z,29.07
2018-07-28T00:48:33.733Z,29.08
2018-07-28T00:48:59.294Z,29.07
2018-07-28T00:49:24.878Z,29.07
2018-07-28T00:49:50.469Z,29.08
2018-07-28T00:50:16.039Z,29.13
2018-07-28T00:50:41.621Z,29.08
2018-07-28T00:51:07.204Z,29.18
2018-07-28T00:51:32.767Z,29.07
2018-07-28T00:51:58.335Z,29.06
2018-07-28T00:52:23.922Z,29.11
2018-07-28T00:52:49.547Z,29.06
2018-07-28T00:53:15.135Z,29.13
2018-07-28T00:53:40.711Z,29.13
2018-07-28T00:54:06.280Z,29.1
2018-07-28T00:54:31.857Z,29.13
2018-07-28T00:54:57.445Z,29.07
2018-07-28T00:55:23.026Z,29.07
2018-07-28T00:55:48.615Z,29.03
2018-07-28T00:56:14.194Z,29.06
2018-07-28T00:56:39.759Z,29.07
2018-07-28T00:57:05.332Z,29.1
2018-07-28T00:57:30.914Z,29.11
2018-07-28T00:57:56.495Z,29.07
2018-07-28T00:58:22.090Z,29.1
2018-07-28T00:58:47.653Z,29.07
2018-07-28T00:59:13.221Z,29.06
2018-07-28T00:59:38.815Z,29.13
2018-07-28T01:00:04.386Z,29.07
2018-07-28T01:00:29.969Z,29.13
2018-07-28T01:00:55.541Z,29.11
2018-07-28T01:01:21.146Z,29.08
2018-07-28T01:01:46.712Z,29.08
2018-07-28T01:02:12.285Z,29.1
2018-07-28T01:02:37.878Z,29.13
2018-07-28T01:03:03.430Z,29.1
2018-07-28T01:03:28.993Z,29.19
2018-07-28T01:03:54.555Z,29.11
2018-07-28T01:04:20.117Z,29.1
2018-07-28T01:04:45.694Z,29.11
2018-07-28T01:05:11.266Z,29.11
2018-07-28T01:05:36.861Z,29.1
2018-07-28T01:06:02.431Z,29.11
2018-07-28T01:06:27.998Z,29.13
2018-07-28T01:06:53.565Z,29.16
2018-07-28T01:07:19.138Z,29.15
2018-07-28T01:07:44.713Z,29.06
2018-07-28T01:08:10.281Z,29.07
2018-07-28T01:08:35.869Z,29.16
2018-07-28T01:09:01.438Z,29.08
2018-07-28T01:09:27.033Z,29.08
2018-07-28T01:09:52.612Z,29.1
2018-07-28T01:10:18.194Z,29.13
2018-07-28T01:10:43.765Z,29.08
2018-07-28T01:11:09.349Z,29.13
2018-07-28T01:11:34.913Z,29.01
2018-07-28T01:12:00.499Z,29.08
2018-07-28T01:12:26.083Z,29.1
2018-07-28T01:12:51.651Z,29.08
2018-07-28T01:13:17.221Z,29.13
2018-07-28T01:13:42.805Z,29.06
2018-07-28T01:14:08.376Z,29.07
2018-07-28T01:14:33.952Z,29.03
2018-07-28T01:14:59.525Z,29.06
2018-07-28T01:15:25.093Z,29.07
2018-07-28T01:15:50.662Z,29.13
2018-07-28T01:16:16.237Z,29.08
2018-07-28T01:16:41.828Z,29.06
2018-07-28T01:17:07.393Z,29.13
2018-07-28T01:17:32.978Z,29.13
2018-07-28T01:17:58.519Z,29.15
2018-07-28T01:18:24.103Z,29.1
2018-07-28T01:18:49.697Z,29.04
2018-07-28T01:19:15.268Z,29.06
2018-07-28T01:19:40.847Z,29.16
2018-07-28T01:20:06.429Z,29.07
2018-07-28T01:20:32.011Z,29.07
2018-07-28T01:20:57.601Z,29.13
2018-07-28T01:21:23.175Z,29.11
2018-07-28T01:21:48.780Z,29.11
2018-07-28T01:22:14.360Z,29.15
2018-07-28T01:22:39.946Z,29.08
2018-07-28T01:23:05.527Z,29.08
2018-07-28T01:23:31.102Z,29.06
2018-07-28T01:23:56.676Z,29.06
2018-07-28T01:24:22.264Z,29.04
2018-07-28T01:24:47.812Z,29.15
2018-07-28T01:25:13.397Z,29.06
2018-07-28T01:25:38.967Z,29.13
2018-07-28T01:26:04.525Z,29.13
2018-07-28T01:26:30.093Z,29.13
2018-07-28T01:26:55.670Z,29.04
2018-07-28T01:27:21.244Z,29.04
2018-07-28T01:27:46.818Z,29.11
2018-07-28T01:28:12.384Z,29.07
2018-07-28T01:28:37.940Z,29.08
2018-07-28T01:29:03.522Z,29.13
2018-07-28T01:29:29.083Z,29.07
2018-07-28T01:29:54.651Z,29.1
2018-07-28T01:30:20.239Z,29.07
2018-07-28T01:30:45.801Z,29.03
2018-07-28T01:31:11.386Z,29.1
2018-07-28T01:31:36.957Z,29.07
2018-07-28T01:32:02.525Z,29.1
2018-07-28T01:32:28.091Z,29.08
2018-07-28T01:32:53.664Z,29.07
2018-07-28T01:33:19.248Z,29.1
2018-07-28T01:33:44.825Z,29.1
2018-07-28T01:34:10.400Z,29.08
2018-07-28T01:34:35.970Z,29.13
2018-07-28T01:35:01.556Z,29.08
2018-07-28T01:35:27.136Z,29.1
2018-07-28T01:35:52.719Z,29.06
2018-07-28T01:36:18.278Z,29.13
2018-07-28T01:36:43.855Z,29.11
2018-07-28T01:37:09.435Z,29.1
2018-07-28T01:37:35.012Z,29.11
2018-07-28T01:38:00.585Z,29.11
2018-07-28T01:38:26.166Z,29.07
2018-07-28T01:38:51.747Z,29.08
2018-07-28T01:39:17.309Z,29.06
2018-07-28T01:39:42.876Z,29.06
2018-07-28T01:40:08.441Z,29.08
2018-07-28T01:40:34.015Z,29.08
2018-07-28T01:40:59.572Z,29.08
2018-07-28T01:41:25.148Z,29.1
2018-07-28T01:41:50.727Z,29.06
2018-07-28T01:42:16.305Z,29.18
2018-07-28T01:42:41.883Z,29.06
2018-07-28T01:43:07.450Z,29.04
2018-07-28T01:43:33.035Z,29.13
2018-07-28T01:43:58.597Z,29.13
2018-07-28T01:44:24.175Z,29.1
2018-07-28T01:44:49.756Z,29.08
2018-07-28T01:45:15.327Z,29.07
2018-07-28T01:45:40.929Z,29.04
2018-07-28T01:46:06.488Z,29.11
2018-07-28T01:46:32.053Z,29.11
2018-07-28T01:46:57.629Z,29.08
2018-07-28T01:47:23.215Z,29.04
2018-07-28T01:47:48.774Z,29.06
2018-07-28T01:48:14.348Z,29.13
2018-07-28T01:48:39.922Z,29.1
2018-07-28T01:49:05.499Z,29.08
2018-07-28T01:49:31.155Z,29.08
2018-07-28T01:49:56.674Z,29.13
2018-07-28T01:50:22.250Z,29.13
2018-07-28T01:50:47.819Z,29.1
2018-07-28T01:51:13.400Z,29.04
2018-07-28T01:51:38.975Z,29.07
2018-07-28T01:52:04.554Z,29.08
2018-07-28T01:52:30.120Z,29.13
2018-07-28T01:52:55.702Z,29.08
2018-07-28T01:53:21.310Z,29.07
2018-07-28T01:53:46.828Z,29.07
2018-07-28T01:54:12.407Z,29.13
2018-07-28T01:54:38.004Z,29.07
2018-07-28T01:55:03.551Z,29.08
2018-07-28T01:55:29.136Z,29.07
2018-07-28T01:55:54.718Z,29.1
2018-07-28T01:56:20.277Z,29.11
2018-07-28T01:56:45.865Z,29.07
2018-07-28T01:57:11.440Z,29.08
2018-07-28T01:57:37.050Z,29.11
2018-07-28T01:58:02.631Z,29
2018-07-28T01:58:28.218Z,29.11
2018-07-28T01:58:53.797Z,29.08
2018-07-28T01:59:19.353Z,29.08
2018-07-28T01:59:45.005Z,29.1
2018-07-28T02:00:10.514Z,29.08
2018-07-28T02:00:36.081Z,29.1
2018-07-28T02:01:01.685Z,29.06
2018-07-28T02:01:27.229Z,29.1
2018-07-28T02:01:52.825Z,29.04
2018-07-28T02:02:18.405Z,29.04
2018-07-28T02:02:43.976Z,29.08
2018-07-28T02:03:09.548Z,29.06
2018-07-28T02:03:35.143Z,29.08
2018-07-28T02:04:00.719Z,29.06
2018-07-28T02:04:26.273Z,29.06
2018-07-28T02:04:51.871Z,29.08
2018-07-28T02:05:17.544Z,29.06
2018-07-28T02:05:43.066Z,29.03
2018-07-28T02:06:08.632Z,29.1
2018-07-28T02:06:34.216Z,29.04
2018-07-28T02:06:59.795Z,29.08
2018-07-28T02:07:25.374Z,29.07
2018-07-28T02:07:50.955Z,29.07
2018-07-28T02:08:16.536Z,29.11
2018-07-28T02:08:42.105Z,29.04
2018-07-28T02:09:07.680Z,29.03
2018-07-28T02:09:33.249Z,29.1
2018-07-28T02:09:58.817Z,29.13
2018-07-28T02:10:24.396Z,29.11
2018-07-28T02:10:49.959Z,29.06
2018-07-28T02:11:15.560Z,29.08
2018-07-28T02:11:41.133Z,29.01
2018-07-28T02:12:06.718Z,29.07
2018-07-28T02:12:32.286Z,29.04
2018-07-28T02:12:57.857Z,29.07
2018-07-28T02:13:23.436Z,29.07
2018-07-28T02:13:49.011Z,29.1
2018-07-28T02:14:14.575Z,29.08
2018-07-28T02:14:40.138Z,29.08
2018-07-28T02:15:05.714Z,29.06
2018-07-28T02:15:33.592Z,29
2018-07-28T02:15:57.845Z,29.04
2018-07-28T02:16:23.408Z,29.11
2018-07-28T02:16:48.986Z,29
2018-07-28T02:17:14.563Z,29.04
2018-07-28T02:17:40.128Z,29.1
2018-07-28T02:18:05.699Z,29.08
2018-07-28T02:18:31.279Z,29.08
2018-07-28T02:18:56.849Z,29.07
2018-07-28T02:19:22.422Z,29.06
2018-07-28T02:19:47.981Z,29.07
2018-07-28T02:20:13.554Z,29.06
2018-07-28T02:20:39.129Z,29.03
2018-07-28T02:21:04.702Z,29.07
2018-07-28T02:21:30.267Z,29.08
2018-07-28T02:21:55.820Z,29.08
2018-07-28T02:22:21.400Z,29.06
2018-07-28T02:22:46.959Z,29.04
2018-07-28T02:23:12.531Z,29.04
2018-07-28T02:23:38.098Z,29.06
2018-07-28T02:24:03.675Z,29.08
2018-07-28T02:24:29.261Z,29.06
2018-07-28T02:24:54.849Z,29.04
2018-07-28T02:25:20.418Z,29.04
2018-07-28T02:25:45.995Z,29.04
2018-07-28T02:26:11.569Z,29.06
2018-07-28T02:26:37.147Z,29.04
2018-07-28T02:27:02.714Z,29.06
2018-07-28T02:27:28.270Z,29.04
2018-07-28T02:27:53.852Z,29.07
2018-07-28T02:28:19.422Z,29.08
2018-07-28T02:28:45.040Z,29.08
2018-07-28T02:29:10.553Z,29
2018-07-28T02:29:36.129Z,29.06
2018-07-28T02:30:01.706Z,29.07
2018-07-28T02:30:27.265Z,29.06
2018-07-28T02:30:52.895Z,29.08
2018-07-28T02:31:18.461Z,29.08
2018-07-28T02:31:44.035Z,29.07
2018-07-28T02:32:09.616Z,29.08
2018-07-28T02:32:35.179Z,29.04
2018-07-28T02:33:00.743Z,29.03
2018-07-28T02:33:26.314Z,29.06
2018-07-28T02:33:51.889Z,29.03
2018-07-28T02:34:17.465Z,29.03
2018-07-28T02:34:43.052Z,29.01
2018-07-28T02:35:08.626Z,29.03
2018-07-28T02:35:34.196Z,29.06
2018-07-28T02:35:59.771Z,29.04
2018-07-28T02:36:25.344Z,29.06
2018-07-28T02:36:50.917Z,29.03
2018-07-28T02:37:16.470Z,29.06
2018-07-28T02:37:42.042Z,29.04
2018-07-28T02:38:07.634Z,29.06
2018-07-28T02:38:33.208Z,29
2018-07-28T02:38:58.836Z,29.07
2018-07-28T02:39:24.493Z,29.1
2018-07-28T02:39:50.053Z,29.07
2018-07-28T02:40:15.628Z,29.04
2018-07-28T02:40:41.210Z,29.07
2018-07-28T02:41:06.790Z,29.06
2018-07-28T02:41:32.368Z,29.04
2018-07-28T02:41:57.948Z,29.07
2018-07-28T02:42:23.524Z,29.07
2018-07-28T02:42:49.112Z,29.07
2018-07-28T02:43:14.687Z,29.03
2018-07-28T02:43:40.264Z,29.01
2018-07-28T02:44:05.866Z,29.1
2018-07-28T02:44:31.431Z,29.07
2018-07-28T02:44:56.985Z,29.06
2018-07-28T02:45:22.548Z,29.03
2018-07-28T02:45:48.108Z,29.04
2018-07-28T02:46:13.684Z,29.04
2018-07-28T02:46:39.263Z,29.08
2018-07-28T02:47:04.846Z,29.1
2018-07-28T02:47:30.422Z,29.06
2018-07-28T02:47:56.000Z,29.07
2018-07-28T02:48:21.564Z,29.08
2018-07-28T02:48:47.136Z,29.07
2018-07-28T02:49:12.718Z,29.1
2018-07-28T02:49:38.319Z,29.01
2018-07-28T02:50:03.916Z,29.04
2018-07-28T02:50:29.479Z,29.03
2018-07-28T02:50:55.086Z,29.06
2018-07-28T02:51:20.657Z,29.04
2018-07-28T02:51:46.234Z,29.03
2018-07-28T02:52:11.823Z,29.07
2018-07-28T02:52:37.399Z,29
2018-07-28T02:53:02.987Z,29.03
2018-07-28T02:53:28.552Z,29.1
2018-07-28T02:53:54.115Z,29.07
2018-07-28T02:54:19.698Z,29.03
2018-07-28T02:54:45.269Z,29.04
2018-07-28T02:55:10.868Z,29.07
2018-07-28T02:55:36.446Z,29.07
2018-07-28T02:56:02.032Z,29.1
2018-07-28T02:56:27.607Z,29.04
2018-07-28T02:56:53.174Z,29.13
2018-07-28T02:57:18.778Z,29.06
2018-07-28T02:57:44.350Z,29.08
2018-07-28T02:58:09.931Z,29.04
2018-07-28T02:58:35.514Z,29.07
2018-07-28T02:59:01.092Z,29.06
2018-07-28T02:59:26.669Z,29.03
2018-07-28T02:59:52.240Z,29.07
2018-07-28T03:00:17.816Z,29.07
2018-07-28T03:00:43.382Z,29.04
2018-07-28T03:01:08.958Z,29.03
2018-07-28T03:01:34.530Z,29.06
2018-07-28T03:02:00.114Z,29.07
2018-07-28T03:02:25.688Z,29.04
2018-07-28T03:02:51.270Z,29.04
2018-07-28T03:03:16.858Z,29.06
2018-07-28T03:03:42.424Z,29.04
2018-07-28T03:04:07.997Z,29.04
2018-07-28T03:04:33.576Z,29.04
2018-07-28T03:04:59.148Z,29.03
2018-07-28T03:05:24.704Z,29.07
2018-07-28T03:05:50.262Z,29.03
2018-07-28T03:06:15.864Z,29.08
2018-07-28T03:06:41.444Z,29.06
2018-07-28T03:07:07.015Z,29.04
2018-07-28T03:07:32.578Z,29.04
2018-07-28T03:07:58.146Z,29.03
2018-07-28T03:08:23.749Z,29.07
2018-07-28T03:08:49.311Z,29.03
2018-07-28T03:09:14.904Z,29.03
2018-07-28T03:09:40.468Z,29.03
2018-07-28T03:10:06.043Z,29.07
2018-07-28T03:10:31.613Z,29.06
2018-07-28T03:10:57.178Z,29.04
2018-07-28T03:11:22.762Z,29.03
2018-07-28T03:11:48.377Z,29.03
2018-07-28T03:12:13.938Z,29.07
2018-07-28T03:12:39.518Z,29.08
2018-07-28T03:13:05.068Z,29.06
2018-07-28T03:13:30.644Z,29.04
2018-07-28T03:13:56.236Z,29.01
2018-07-28T03:14:21.794Z,29.04
2018-07-28T03:14:47.387Z,29.1
2018-07-28T03:15:12.953Z,29.08
2018-07-28T03:15:38.516Z,29.06
2018-07-28T03:16:04.085Z,29.01
2018-07-28T03:16:29.659Z,29.01
2018-07-28T03:16:55.236Z,29.03
2018-07-28T03:17:20.818Z,29.08
2018-07-28T03:17:46.399Z,29.03
2018-07-28T03:18:11.980Z,29.03
2018-07-28T03:18:37.540Z,29.04
2018-07-28T03:19:03.108Z,29.03
2018-07-28T03:19:28.686Z,29.07
2018-07-28T03:19:54.260Z,29.06
2018-07-28T03:20:19.834Z,29.03
2018-07-28T03:20:45.406Z,29.04
2018-07-28T03:21:10.973Z,29.03
2018-07-28T03:21:36.560Z,29.03
2018-07-28T03:22:02.131Z,29.06
2018-07-28T03:22:27.712Z,29
2018-07-28T03:22:53.292Z,29
2018-07-28T03:23:18.876Z,29.04
2018-07-28T03:23:44.451Z,29.04
2018-07-28T03:24:10.028Z,29.06
2018-07-28T03:24:35.598Z,29
2018-07-28T03:25:01.180Z,29.04
2018-07-28T03:25:26.743Z,29.03
2018-07-28T03:25:52.344Z,29.06
2018-07-28T03:26:17.925Z,29.01
2018-07-28T03:26:43.508Z,29.07
2018-07-28T03:27:09.085Z,29.07
2018-07-28T03:27:34.676Z,29.01
2018-07-28T03:28:00.237Z,29.01
2018-07-28T03:28:25.815Z,29
2018-07-28T03:28:51.377Z,29.03
2018-07-28T03:29:16.950Z,29.03
2018-07-28T03:29:42.530Z,29.07
2018-07-28T03:30:08.106Z,29
2018-07-28T03:30:33.680Z,29.01
2018-07-28T03:30:59.239Z,29.06
2018-07-28T03:31:24.816Z,29
2018-07-28T03:31:50.388Z,29.07
2018-07-28T03:32:15.990Z,29
2018-07-28T03:32:41.532Z,29.01
2018-07-28T03:33:07.112Z,29.04
2018-07-28T03:33:32.695Z,29.07
2018-07-28T03:33:58.262Z,29.01
2018-07-28T03:34:23.818Z,29.04
2018-07-28T03:34:49.385Z,29.07
2018-07-28T03:35:14.955Z,29.04
2018-07-28T03:35:40.525Z,29
2018-07-28T03:36:06.093Z,29.04
2018-07-28T03:36:31.666Z,29.06
2018-07-28T03:36:57.242Z,29.03
2018-07-28T03:37:22.809Z,29.07
2018-07-28T03:37:48.384Z,29.03
2018-07-28T03:38:13.966Z,29.03
2018-07-28T03:38:39.541Z,29.06
2018-07-28T03:39:05.118Z,29.04
2018-07-28T03:39:30.708Z,28.97
2018-07-28T03:39:56.286Z,29.03
2018-07-28T03:40:21.849Z,29
2018-07-28T03:40:47.483Z,29.08
2018-07-28T03:41:13.045Z,29.06
2018-07-28T03:41:38.630Z,29.07
2018-07-28T03:42:04.200Z,29.01
2018-07-28T03:42:29.781Z,29.03
2018-07-28T03:42:55.351Z,29.01
2018-07-28T03:43:20.936Z,29
2018-07-28T03:43:46.503Z,29.03
2018-07-28T03:44:12.070Z,29.01
2018-07-28T03:44:37.647Z,29.01
2018-07-28T03:45:03.236Z,29.01
2018-07-28T03:45:28.831Z,29.01
2018-07-28T03:45:54.401Z,29.06
2018-07-28T03:46:20.073Z,29.01
2018-07-28T03:46:45.607Z,29.03
2018-07-28T03:47:11.183Z,29
2018-07-28T03:47:36.748Z,29.04
2018-07-28T03:48:02.313Z,29.03
2018-07-28T03:48:27.880Z,29.04
2018-07-28T03:48:53.452Z,29.01
2018-07-28T03:49:19.094Z,29.03
2018-07-28T03:49:44.606Z,29
2018-07-28T03:50:10.200Z,29.03
2018-07-28T03:50:35.780Z,29.01
2018-07-28T03:51:01.848Z,29.01
2018-07-28T03:51:27.418Z,29.01
2018-07-28T03:51:52.979Z,29
2018-07-28T03:52:18.551Z,29.06
2018-07-28T03:52:44.127Z,29.04
2018-07-28T03:53:09.742Z,29.03
2018-07-28T03:53:35.343Z,29.07
2018-07-28T03:54:00.919Z,29.01
2018-07-28T03:54:26.493Z,29.01
2018-07-28T03:54:52.066Z,29.04
2018-07-28T03:55:17.644Z,29.06
2018-07-28T03:55:43.216Z,29.07
2018-07-28T03:56:08.803Z,29.06
2018-07-28T03:56:34.434Z,29.01
2018-07-28T03:56:59.961Z,29
2018-07-28T03:57:25.530Z,29
2018-07-28T03:57:51.100Z,28.97
2018-07-28T03:58:16.679Z,29.04
2018-07-28T03:58:42.255Z,29.03
2018-07-28T03:59:07.814Z,29.03
2018-07-28T03:59:33.391Z,29.03
2018-07-28T03:59:59.661Z,29
2018-07-28T04:00:24.584Z,29
2018-07-28T04:00:50.148Z,29
2018-07-28T04:01:15.725Z,28.97
2018-07-28T04:01:41.311Z,29.04
2018-07-28T04:02:06.857Z,28.96
2018-07-28T04:02:32.438Z,29.01
2018-07-28T04:02:58.010Z,29.03
2018-07-28T04:03:23.582Z,29.04
2018-07-28T04:03:49.135Z,29.03
2018-07-28T04:04:14.789Z,28.96
2018-07-28T04:04:40.291Z,29.04
2018-07-28T04:05:05.857Z,29.01
2018-07-28T04:05:31.433Z,29.04
2018-07-28T04:05:57.015Z,29.03
2018-07-28T04:06:22.586Z,28.97
2018-07-28T04:06:48.157Z,28.97
2018-07-28T04:07:13.724Z,29.01
2018-07-28T04:07:39.303Z,29
2018-07-28T04:08:04.891Z,29.01
2018-07-28T04:08:30.447Z,29.04
2018-07-28T04:08:56.031Z,28.96
2018-07-28T04:09:21.621Z,29.01
2018-07-28T04:09:47.199Z,29.01
2018-07-28T04:10:12.784Z,28.97
2018-07-28T04:10:38.357Z,29.01
2018-07-28T04:11:03.946Z,29.01
2018-07-28T04:11:29.517Z,29
2018-07-28T04:11:55.093Z,29.01
2018-07-28T04:12:20.690Z,29.06
2018-07-28T04:12:46.281Z,29
2018-07-28T04:13:11.835Z,29.03
2018-07-28T04:13:37.405Z,29.01
2018-07-28T04:14:02.973Z,29.01
2018-07-28T04:14:28.654Z,29.03
2018-07-28T04:14:54.121Z,29.04
2018-07-28T04:15:19.710Z,29.01
2018-07-28T04:15:45.275Z,29.03
2018-07-28T04:16:10.865Z,29.01
2018-07-28T04:16:36.441Z,29.01
2018-07-28T04:17:02.021Z,29.06
2018-07-28T04:17:27.587Z,29
2018-07-28T04:17:53.656Z,29.01
2018-07-28T04:18:19.241Z,29.03
2018-07-28T04:18:44.817Z,29.01
2018-07-28T04:19:10.393Z,29.07
2018-07-28T04:19:35.983Z,29
2018-07-28T04:20:01.559Z,29.03
2018-07-28T04:20:27.120Z,29
2018-07-28T04:20:52.710Z,29
2018-07-28T04:21:18.303Z,29.04
2018-07-28T04:21:43.884Z,29.03
2018-07-28T04:22:09.449Z,28.97
2018-07-28T04:22:35.025Z,28.97
2018-07-28T04:23:00.613Z,29.01
2018-07-28T04:23:26.212Z,28.97
2018-07-28T04:23:51.793Z,29.03
2018-07-28T04:24:17.367Z,29.07
2018-07-28T04:24:42.927Z,29
2018-07-28T04:25:08.503Z,29.04
2018-07-28T04:25:34.092Z,29
2018-07-28T04:25:59.660Z,29.04
2018-07-28T04:26:25.253Z,29
2018-07-28T04:26:50.814Z,29.01
2018-07-28T04:27:16.390Z,28.96
2018-07-28T04:27:41.967Z,29
2018-07-28T04:28:07.576Z,28.96
2018-07-28T04:28:33.171Z,29.04
2018-07-28T04:28:58.717Z,28.96
2018-07-28T04:29:24.317Z,29.01
2018-07-28T04:29:49.839Z,29.01
2018-07-28T04:30:15.417Z,28.97
2018-07-28T04:30:40.987Z,29.01
2018-07-28T04:31:06.602Z,29
2018-07-28T04:31:32.179Z,28.95
2018-07-28T04:31:57.737Z,29.01
2018-07-28T04:32:23.323Z,29.04
2018-07-28T04:32:48.909Z,29.04
2018-07-28T04:33:14.476Z,29.04
2018-07-28T04:33:40.044Z,29.07
2018-07-28T04:34:05.636Z,29
2018-07-28T04:34:31.188Z,29.01
2018-07-28T04:34:56.785Z,28.97
2018-07-28T04:35:22.341Z,29.04
2018-07-28T04:35:47.907Z,29
2018-07-28T04:36:13.481Z,29.03
2018-07-28T04:36:39.052Z,29
2018-07-28T04:37:04.620Z,29
2018-07-28T04:37:30.182Z,29.03
2018-07-28T04:37:55.756Z,29.07
2018-07-28T04:38:21.327Z,29.01
2018-07-28T04:38:46.885Z,28.97
2018-07-28T04:39:12.463Z,29.01
2018-07-28T04:39:38.028Z,29.03
2018-07-28T04:40:03.597Z,29.03
2018-07-28T04:40:29.196Z,28.97
2018-07-28T04:40:54.787Z,29.01
2018-07-28T04:41:20.377Z,28.97
2018-07-28T04:41:45.995Z,29.03
2018-07-28T04:42:11.573Z,29.01
2018-07-28T04:42:37.148Z,28.96
2018-07-28T04:43:02.726Z,29
2018-07-28T04:43:28.288Z,29
2018-07-28T04:43:53.863Z,29
2018-07-28T04:44:19.436Z,29.01
2018-07-28T04:44:45.007Z,28.97
2018-07-28T04:45:10.601Z,29.03
2018-07-28T04:45:36.181Z,28.96
2018-07-28T04:46:01.747Z,29.01
2018-07-28T04:46:27.308Z,28.96
2018-07-28T04:46:52.898Z,28.96
2018-07-28T04:47:18.471Z,29.03
2018-07-28T04:47:44.047Z,29
2018-07-28T04:48:09.620Z,28.97
2018-07-28T04:48:35.193Z,28.95
2018-07-28T04:49:00.765Z,29.07
2018-07-28T04:49:26.339Z,29.01
2018-07-28T04:49:51.908Z,29
2018-07-28T04:50:17.496Z,29
2018-07-28T04:50:43.065Z,29
2018-07-28T04:51:08.635Z,28.93
2018-07-28T04:51:34.210Z,29
2018-07-28T04:51:59.798Z,29.06
2018-07-28T04:52:25.377Z,29.03
2018-07-28T04:52:50.940Z,28.93
2018-07-28T04:53:16.513Z,29.04
2018-07-28T04:53:42.082Z,28.95
2018-07-28T04:54:07.684Z,28.95
2018-07-28T04:54:33.273Z,29
2018-07-28T04:54:58.845Z,29
2018-07-28T04:55:24.409Z,28.97
2018-07-28T04:55:50.047Z,28.96
2018-07-28T04:56:15.646Z,29.03
2018-07-28T04:56:41.217Z,29.04
2018-07-28T04:57:06.831Z,29
2018-07-28T04:57:32.432Z,28.96
2018-07-28T04:57:57.996Z,28.96
2018-07-28T04:58:23.590Z,29.01
2018-07-28T04:58:49.173Z,29.04
2018-07-28T04:59:14.734Z,28.96
2018-07-28T04:59:40.310Z,29.03
2018-07-28T05:00:05.910Z,28.97
2018-07-28T05:00:31.481Z,28.97
2018-07-28T05:00:57.048Z,28.96
2018-07-28T05:01:22.626Z,29
2018-07-28T05:01:48.207Z,28.97
2018-07-28T05:02:13.781Z,29.01
2018-07-28T05:02:39.357Z,28.96
2018-07-28T05:03:04.915Z,28.97
2018-07-28T05:03:30.476Z,29
2018-07-28T05:03:56.047Z,28.93
2018-07-28T05:04:21.615Z,29
2018-07-28T05:04:47.223Z,29
2018-07-28T05:05:12.783Z,28.96
2018-07-28T05:05:38.366Z,28.97
2018-07-28T05:06:03.933Z,29.01
2018-07-28T05:06:29.510Z,28.97
2018-07-28T05:06:55.126Z,29.01
2018-07-28T05:07:20.804Z,28.97
2018-07-28T05:07:46.335Z,29
2018-07-28T05:08:11.856Z,29.01
2018-07-28T05:08:37.418Z,29.01
2018-07-28T05:09:02.987Z,29
2018-07-28T05:09:28.569Z,29.07
2018-07-28T05:09:54.146Z,29.03
2018-07-28T05:10:19.719Z,28.95
2018-07-28T05:10:45.297Z,29.03
2018-07-28T05:11:10.872Z,29
2018-07-28T05:11:36.447Z,28.95
2018-07-28T05:12:02.022Z,29.03
2018-07-28T05:12:27.600Z,28.97
2018-07-28T05:12:53.180Z,28.95
2018-07-28T05:13:18.761Z,29
2018-07-28T05:13:44.331Z,29
2018-07-28T05:14:09.921Z,29
2018-07-28T05:14:35.500Z,29
2018-07-28T05:15:01.084Z,29.01
2018-07-28T05:15:26.659Z,29
2018-07-28T05:15:52.246Z,29
2018-07-28T05:16:17.793Z,28.96
2018-07-28T05:16:43.359Z,28.97
2018-07-28T05:17:08.937Z,28.96
2018-07-28T05:17:34.510Z,28.96
2018-07-28T05:18:00.085Z,28.97
2018-07-28T05:18:25.667Z,28.96
2018-07-28T05:18:51.231Z,29
2018-07-28T05:19:16.790Z,29.03
2018-07-28T05:19:42.375Z,29.04
2018-07-28T05:20:07.965Z,29
2018-07-28T05:20:33.549Z,29.03
2018-07-28T05:20:59.118Z,29
2018-07-28T05:21:24.682Z,28.97
2018-07-28T05:21:50.267Z,29.04
2018-07-28T05:22:15.832Z,29
2018-07-28T05:22:41.411Z,28.95
2018-07-28T05:23:06.993Z,29
2018-07-28T05:23:32.575Z,28.96
2018-07-28T05:23:58.159Z,29
2018-07-28T05:24:23.728Z,28.96
2018-07-28T05:24:49.334Z,29
2018-07-28T05:25:14.914Z,29
2018-07-28T05:25:40.495Z,29.01
2018-07-28T05:26:06.070Z,29.04
2018-07-28T05:26:31.634Z,29
2018-07-28T05:26:57.192Z,29
2018-07-28T05:27:22.779Z,29
2018-07-28T05:27:48.349Z,29.01
2018-07-28T05:28:13.943Z,29.03
2018-07-28T05:28:39.511Z,28.95
2018-07-28T05:29:05.083Z,28.96
2018-07-28T05:29:30.668Z,29.01
2018-07-28T05:29:56.234Z,29
2018-07-28T05:30:21.807Z,29
2018-07-28T05:30:47.383Z,29
2018-07-28T05:31:12.960Z,29.01
2018-07-28T05:31:38.529Z,28.95
2018-07-28T05:32:04.101Z,28.95
2018-07-28T05:32:29.667Z,28.97
2018-07-28T05:32:55.253Z,29
2018-07-28T05:33:20.838Z,29
2018-07-28T05:33:46.421Z,29.01